Time;durP1;ratioP1;P1;durP2;ratioP2;P2;SDS_P1;SDS_P2;PMS_P1;PMS_P2;Temp;Humidity;BMP_temperature;BMP_pressure;BME280_temperature;BME280_humidity;BME280_pressure;Samples;Min_cycle;Max_cycle;Signal;HPM_P1;HPM_P2
2023/01/05 00:01:04;;;;;;;8.00;1.98;;;12.60;99.90;;;;;;5007664;28;20121;-90
2023/01/05 00:03:30;;;;;;;10.93;2.22;;;12.60;99.90;;;;;;5014795;28;20379;-90
2023/01/05 00:06:01;;;;;;;8.13;2.10;;;12.60;99.90;;;;;;5002699;28;20041;-90
2023/01/05 00:08:27;;;;;;;8.40;2.55;;;12.60;99.90;;;;;;4980807;28;20025;-91
2023/01/05 00:22:37;;;;;;;9.60;2.60;;;12.60;99.90;;;;;;5012321;28;21036;-91
2023/01/05 00:25:08;;;;;;;10.10;2.78;;;12.60;99.90;;;;;;5020533;28;20033;-88
2023/01/05 00:27:33;;;;;;;14.00;3.20;;;12.70;99.90;;;;;;4998545;28;20064;-90
2023/01/05 00:30:00;;;;;;;9.25;2.40;;;12.70;99.90;;;;;;5017484;28;20034;-89
2023/01/05 00:32:27;;;;;;;10.10;2.67;;;12.70;99.90;;;;;;5011846;28;20032;-91
2023/01/05 00:34:56;;;;;;;14.10;2.92;;;12.70;99.90;;;;;;5002769;28;20052;-88
2023/01/05 00:37:24;;;;;;;9.43;2.53;;;12.70;99.90;;;;;;5003039;28;20059;-89
2023/01/05 00:39:51;;;;;;;12.15;2.38;;;12.70;99.90;;;;;;4980540;28;20300;-90
2023/01/05 00:42:17;;;;;;;9.38;2.30;;;12.80;99.90;;;;;;5011085;28;20037;-90
2023/01/05 00:44:43;;;;;;;12.30;2.70;;;12.80;99.90;;;;;;5035415;28;20025;-89
2023/01/05 00:47:09;;;;;;;10.05;2.20;;;12.80;99.90;;;;;;4999062;28;20051;-89
2023/01/05 00:49:35;;;;;;;8.98;2.10;;;12.80;99.90;;;;;;5015028;28;20398;-90
2023/01/05 00:52:01;;;;;;;8.23;2.00;;;12.90;99.90;;;;;;5018004;28;20472;-89
2023/01/05 00:54:26;;;;;;;8.38;1.95;;;12.90;99.90;;;;;;4981558;28;20512;-90
2023/01/05 00:56:53;;;;;;;10.40;1.95;;;12.90;99.90;;;;;;4988488;28;20381;-91
2023/01/05 00:59:19;;;;;;;7.10;1.70;;;12.90;99.90;;;;;;4993171;28;20025;-90
2023/01/05 01:01:46;;;;;;;8.10;1.70;;;12.90;99.90;;;;;;5009184;28;20033;-91
2023/01/05 01:04:13;;;;;;;8.68;1.77;;;12.90;99.90;;;;;;5001775;28;20367;-91
2023/01/05 01:06:39;;;;;;;8.97;1.73;;;12.90;99.90;;;;;;5011832;28;20686;-89
2023/01/05 01:09:05;;;;;;;9.80;1.90;;;12.90;99.90;;;;;;5000976;28;20116;-88
2023/01/05 01:11:31;;;;;;;13.32;2.05;;;12.90;99.90;;;;;;4990355;28;20115;-90
2023/01/05 01:13:56;;;;;;;7.00;1.60;;;12.90;99.90;;;;;;4999197;28;20041;-89
2023/01/05 01:16:22;;;;;;;8.07;1.60;;;12.90;99.90;;;;;;4995515;28;20024;-91
2023/01/05 01:18:48;;;;;;;7.07;1.30;;;12.80;99.90;;;;;;5012833;28;20102;-92
2023/01/05 01:21:14;;;;;;;8.68;1.33;;;12.80;99.90;;;;;;5001220;28;20029;-91
2023/01/05 01:23:40;;;;;;;10.33;1.70;;;12.80;99.90;;;;;;5000385;28;20373;-88
2023/01/05 01:26:08;;;;;;;6.60;1.35;;;12.80;99.90;;;;;;4984507;28;20041;-90
2023/01/05 01:28:34;;;;;;;8.40;1.63;;;12.80;99.90;;;;;;5003560;28;20041;-91
2023/01/05 01:31:00;;;;;;;8.40;1.92;;;12.70;99.90;;;;;;5011483;28;20017;-92
2023/01/05 01:33:27;;;;;;;7.77;1.37;;;12.70;99.90;;;;;;5010806;28;20120;-90
2023/01/05 01:35:53;;;;;;;8.18;1.30;;;12.70;99.90;;;;;;5030889;28;20021;-90
2023/01/05 01:38:19;;;;;;;9.43;1.48;;;12.70;99.90;;;;;;5006972;28;20098;-89
2023/01/05 01:40:46;;;;;;;7.50;1.40;;;12.70;99.90;;;;;;4991913;28;20625;-91
2023/01/05 01:43:18;;;;;;;6.63;1.25;;;12.60;99.90;;;;;;5002502;28;20025;-90
2023/01/05 01:45:44;;;;;;;6.70;1.23;;;12.60;99.90;;;;;;5011342;28;20223;-91
2023/01/05 01:48:16;;;;;;;8.05;1.70;;;12.60;99.90;;;;;;5010479;28;20572;-91
2023/01/05 01:50:52;;;;;;;8.43;1.45;;;12.60;99.90;;;;;;5008454;28;20235;-90
2023/01/05 01:53:32;;;;;;;8.47;1.70;;;12.60;99.90;;;;;;4996169;28;20325;-90
2023/01/05 01:56:01;;;;;;;8.00;1.33;;;12.60;99.90;;;;;;5014035;28;20083;-91
2023/01/05 01:58:29;;;;;;;8.20;1.35;;;12.60;99.90;;;;;;5005126;28;20037;-91
2023/01/05 02:00:58;;;;;;;6.00;1.48;;;12.60;99.90;;;;;;5015126;28;20078;-91
2023/01/05 02:03:24;;;;;;;6.72;1.50;;;12.60;99.90;;;;;;4998936;28;20565;-91
2023/01/05 02:05:50;;;;;;;6.83;1.40;;;12.60;99.90;;;;;;5010012;28;20057;-90
2023/01/05 02:08:24;;;;;;;7.80;1.45;;;12.60;99.90;;;;;;5002019;28;20469;-90
2023/01/05 02:11:27;;;;;;;6.55;1.25;;;12.60;99.90;;;;;;5020171;28;20137;-92
2023/01/05 02:14:11;;;;;;;8.93;1.50;;;12.60;99.90;;;;;;4995702;28;20033;-91
2023/01/05 02:16:59;;;;;;;6.37;1.20;;;12.60;99.90;;;;;;5010752;28;20404;-90
2023/01/05 02:19:48;;;;;;;8.65;1.50;;;12.60;99.90;;;;;;4995961;28;20516;-91
2023/01/05 02:22:54;;;;;;;6.60;1.15;;;12.60;99.90;;;;;;4968039;28;20040;-91
2023/01/05 02:25:35;;;;;;;5.70;1.10;;;12.60;99.90;;;;;;5013341;28;20051;-91
2023/01/05 02:28:21;;;;;;;6.28;1.30;;;12.60;99.90;;;;;;4997864;28;20109;-91
2023/01/05 02:31:02;;;;;;;7.97;1.10;;;12.70;99.90;;;;;;5017522;28;20326;-91
2023/01/05 02:33:59;;;;;;;5.55;1.30;;;12.60;99.90;;;;;;5027745;28;20580;-90
2023/01/05 02:36:52;;;;;;;4.43;1.15;;;12.70;99.90;;;;;;4997226;28;20024;-91
2023/01/05 02:39:33;;;;;;;5.60;1.20;;;12.70;99.90;;;;;;5014693;28;20033;-91
2023/01/05 02:42:04;;;;;;;8.57;1.50;;;12.70;99.90;;;;;;5011874;28;20032;-92
2023/01/05 02:44:32;;;;;;;9.43;1.53;;;12.80;99.90;;;;;;4987198;28;20040;-91
2023/01/05 02:47:05;;;;;;;5.35;1.17;;;12.80;99.90;;;;;;5001602;28;20017;-90
2023/01/05 02:49:37;;;;;;;9.07;1.60;;;12.80;99.90;;;;;;5004930;28;20025;-90
2023/01/05 02:52:05;;;;;;;9.13;2.05;;;12.80;99.90;;;;;;4998046;28;20021;-91
2023/01/05 02:54:44;;;;;;;8.95;1.35;;;12.90;99.90;;;;;;5008466;28;20520;-91
2023/01/05 02:57:49;;;;;;;9.87;2.00;;;12.80;99.90;;;;;;4979728;28;20412;-90
2023/01/05 03:00:29;;;;;;;6.90;1.10;;;12.90;99.90;;;;;;4975980;28;20156;-91
2023/01/05 03:03:00;;;;;;;12.48;2.10;;;12.90;99.90;;;;;;5016458;28;20489;-90
2023/01/05 03:05:33;;;;;;;10.80;1.83;;;12.90;99.90;;;;;;4991295;28;20044;-90
2023/01/05 03:08:06;;;;;;;8.23;1.42;;;13.00;99.90;;;;;;5001378;28;20064;-90
2023/01/05 03:13:42;;;;;;;7.22;1.48;;;13.00;99.90;;;;;;4990099;28;20025;-89
2023/01/05 03:16:17;;;;;;;6.57;1.33;;;13.00;99.90;;;;;;5017747;28;20020;-91
2023/01/05 03:21:29;;;;;;;6.10;1.40;;;13.00;99.90;;;;;;5005262;28;20028;-90
2023/01/05 03:35:32;;;;;;;6.78;1.50;;;13.00;99.90;;;;;;5031758;28;20032;-91
2023/01/05 03:38:13;;;;;;;12.17;1.70;;;13.00;99.90;;;;;;4992407;28;20033;-91
2023/01/05 03:40:40;;;;;;;8.07;1.92;;;13.00;99.90;;;;;;4991305;28;20032;-91
2023/01/05 03:43:07;;;;;;;10.57;1.83;;;13.00;99.90;;;;;;5016752;28;20037;-91
2023/01/05 03:45:40;;;;;;;8.38;1.40;;;13.00;99.90;;;;;;5006580;28;20029;-90
2023/01/05 03:48:06;;;;;;;8.32;1.52;;;13.00;99.90;;;;;;5031139;28;20033;-92
2023/01/05 03:50:34;;;;;;;10.03;1.77;;;13.00;99.90;;;;;;4991763;28;20467;-89
2023/01/05 03:52:59;;;;;;;11.52;1.90;;;13.00;99.90;;;;;;5013101;28;20071;-91
2023/01/05 03:55:25;;;;;;;8.18;1.60;;;13.00;99.90;;;;;;5001215;28;20052;-89
2023/01/05 03:57:51;;;;;;;9.50;1.50;;;13.00;99.90;;;;;;4996448;28;20068;-90
2023/01/05 04:00:17;;;;;;;7.35;1.42;;;13.00;99.90;;;;;;4991293;28;20810;-90
2023/01/05 04:02:42;;;;;;;7.68;1.33;;;13.00;99.90;;;;;;4983527;28;20044;-90
2023/01/05 04:05:08;;;;;;;9.50;1.80;;;13.00;99.90;;;;;;4989401;28;20128;-91
2023/01/05 04:07:34;;;;;;;7.00;1.38;;;13.00;99.90;;;;;;4968494;28;20151;-90
2023/01/05 04:10:01;;;;;;;8.27;1.50;;;13.00;99.90;;;;;;4979655;28;20314;-92
2023/01/05 04:12:27;;;;;;;8.90;1.77;;;13.00;99.90;;;;;;5008119;28;20029;-92
2023/01/05 04:14:53;;;;;;;12.18;1.77;;;13.00;99.90;;;;;;4977106;28;20105;-90
2023/01/05 04:17:19;;;;;;;10.90;1.97;;;13.00;99.90;;;;;;4959277;28;20301;-90
2023/01/05 04:19:45;;;;;;;7.25;1.27;;;13.00;99.90;;;;;;4995023;28;20135;-91
2023/01/05 04:22:11;;;;;;;8.45;1.85;;;13.00;99.90;;;;;;4973530;28;20038;-87
2023/01/05 04:24:37;;;;;;;8.63;1.50;;;13.00;99.90;;;;;;4993878;28;20029;-88
2023/01/05 04:27:03;;;;;;;8.50;1.60;;;13.00;99.90;;;;;;4994249;28;20025;-92
2023/01/05 04:29:29;;;;;;;7.15;1.45;;;13.00;99.90;;;;;;4989120;28;20108;-91
2023/01/05 04:31:55;;;;;;;8.53;1.63;;;13.00;99.90;;;;;;4995930;28;20116;-91
2023/01/05 04:34:21;;;;;;;10.77;1.70;;;13.00;99.90;;;;;;4965518;28;20053;-89
2023/01/05 04:36:48;;;;;;;8.23;1.52;;;13.10;99.90;;;;;;4994045;28;20468;-91
2023/01/05 04:39:14;;;;;;;9.80;1.60;;;13.00;99.90;;;;;;4989789;28;20033;-90
2023/01/05 04:41:40;;;;;;;8.93;1.60;;;13.00;99.90;;;;;;4975838;28;20354;-91
2023/01/05 04:44:06;;;;;;;6.07;1.23;;;13.10;99.90;;;;;;4995042;28;20071;-90
2023/01/05 04:46:33;;;;;;;9.55;1.40;;;13.00;99.90;;;;;;5009243;28;20430;-92
2023/01/05 04:48:59;;;;;;;8.50;1.50;;;13.00;99.90;;;;;;4977408;28;20037;-91
2023/01/05 04:51:25;;;;;;;8.77;1.50;;;13.00;99.90;;;;;;4982772;28;20552;-91
2023/01/05 04:53:50;;;;;;;7.80;1.33;;;13.00;99.90;;;;;;4978558;28;22278;-91
2023/01/05 04:56:16;;;;;;;6.60;1.33;;;13.00;99.90;;;;;;4980445;28;20100;-92
2023/01/05 04:58:43;;;;;;;10.38;1.35;;;13.00;99.90;;;;;;4996501;28;20021;-89
2023/01/05 05:01:09;;;;;;;9.88;1.60;;;13.00;99.90;;;;;;4987481;28;20478;-91
2023/01/05 05:03:34;;;;;;;6.43;1.40;;;13.00;99.90;;;;;;4959700;28;20570;-90
2023/01/05 05:06:00;;;;;;;9.57;1.73;;;13.00;99.90;;;;;;5003415;28;20052;-90
2023/01/05 05:08:26;;;;;;;8.43;1.30;;;13.00;99.90;;;;;;4996167;28;20262;-92
2023/01/05 05:10:52;;;;;;;8.77;1.83;;;13.00;99.90;;;;;;5012557;28;20085;-91
2023/01/05 05:13:18;;;;;;;12.38;1.60;;;13.00;99.90;;;;;;5016570;28;20013;-90
2023/01/05 05:15:44;;;;;;;7.33;1.40;;;13.00;99.90;;;;;;5001342;28;20413;-90
2023/01/05 05:18:10;;;;;;;8.32;1.35;;;13.00;99.90;;;;;;5005281;28;22778;-88
2023/01/05 05:20:40;;;;;;;8.43;1.60;;;13.00;99.90;;;;;;5020928;28;20120;-90
2023/01/05 05:23:05;;;;;;;10.55;1.58;;;13.00;99.90;;;;;;5002155;28;20021;-87
2023/01/05 05:25:34;;;;;;;8.90;1.38;;;13.00;99.90;;;;;;4999567;28;20024;-92
2023/01/05 05:28:00;;;;;;;9.43;1.23;;;13.00;99.90;;;;;;5000685;28;20032;-90
2023/01/05 05:30:26;;;;;;;7.65;1.25;;;13.00;99.90;;;;;;5014291;28;20227;-89
2023/01/05 05:32:51;;;;;;;7.37;1.37;;;13.00;99.90;;;;;;5020120;28;20048;-89
2023/01/05 05:35:17;;;;;;;4.47;1.10;;;13.00;99.90;;;;;;4979773;28;20021;-88
2023/01/05 05:37:43;;;;;;;7.03;1.47;;;13.00;99.90;;;;;;5010510;28;20076;-91
2023/01/05 05:40:09;;;;;;;8.63;1.70;;;13.00;99.90;;;;;;5014163;28;20056;-92
2023/01/05 05:42:35;;;;;;;7.90;1.40;;;13.00;99.90;;;;;;4997536;28;20095;-90
2023/01/05 05:45:01;;;;;;;10.33;1.73;;;13.00;99.90;;;;;;5015416;28;20025;-89
2023/01/05 05:47:27;;;;;;;10.98;1.60;;;13.00;99.90;;;;;;5031434;28;20238;-90
2023/01/05 05:49:53;;;;;;;7.77;1.27;;;13.00;99.90;;;;;;5000022;28;20477;-90
2023/01/05 05:52:19;;;;;;;8.25;1.27;;;13.00;99.90;;;;;;4979388;28;20478;-90
2023/01/05 05:54:45;;;;;;;6.70;1.40;;;13.00;99.90;;;;;;4999868;28;20017;-92
2023/01/05 05:57:10;;;;;;;8.93;1.47;;;13.00;99.90;;;;;;4996243;28;20021;-92
2023/01/05 05:59:36;;;;;;;12.98;1.90;;;13.00;99.90;;;;;;4998569;28;20177;-90
2023/01/05 06:02:02;;;;;;;8.45;1.48;;;13.00;99.90;;;;;;4999301;28;20162;-89
2023/01/05 06:04:28;;;;;;;9.60;1.60;;;13.00;99.90;;;;;;4985391;28;20099;-92
2023/01/05 06:06:54;;;;;;;9.82;1.80;;;13.00;99.90;;;;;;4991469;28;20068;-90
2023/01/05 06:09:20;;;;;;;8.93;1.43;;;13.00;99.90;;;;;;5016109;28;20029;-89
2023/01/05 06:11:45;;;;;;;7.82;1.35;;;13.00;99.90;;;;;;5013910;28;20021;-90
2023/01/05 06:14:11;;;;;;;9.77;1.60;;;13.00;99.90;;;;;;4999372;28;20305;-92
2023/01/05 06:16:37;;;;;;;9.30;1.45;;;13.00;99.90;;;;;;5001487;28;20082;-90
2023/01/05 06:19:03;;;;;;;7.23;1.40;;;13.00;99.90;;;;;;5001690;28;20028;-89
2023/01/05 06:21:28;;;;;;;9.27;1.87;;;13.00;99.90;;;;;;5018136;28;20613;-89
2023/01/05 06:23:54;;;;;;;7.72;1.27;;;12.90;99.90;;;;;;4992881;28;20045;-92
2023/01/05 06:26:20;;;;;;;12.93;2.15;;;12.90;99.90;;;;;;5014879;28;20260;-90
2023/01/05 06:28:46;;;;;;;10.33;1.53;;;12.90;99.90;;;;;;5011785;28;20029;-88
2023/01/05 06:31:11;;;;;;;8.87;1.50;;;12.90;99.90;;;;;;4993236;28;20243;-90
2023/01/05 06:33:37;;;;;;;11.10;1.45;;;12.90;99.90;;;;;;4999996;28;20017;-90
2023/01/05 06:36:03;;;;;;;11.45;1.73;;;12.90;99.90;;;;;;5015302;28;20017;-90
2023/01/05 06:38:29;;;;;;;10.03;1.83;;;12.90;99.90;;;;;;5000213;28;20401;-89
2023/01/05 06:40:56;;;;;;;12.13;1.70;;;12.90;99.90;;;;;;5000691;28;20029;-90
2023/01/05 06:43:23;;;;;;;10.45;1.73;;;12.90;99.90;;;;;;4993590;28;20021;-91
2023/01/05 06:45:49;;;;;;;8.87;1.80;;;12.90;99.90;;;;;;5007908;28;20242;-93
2023/01/05 06:48:15;;;;;;;11.93;1.55;;;12.90;99.90;;;;;;5011451;28;20108;-91
2023/01/05 06:50:41;;;;;;;9.02;1.70;;;12.90;99.90;;;;;;5004889;28;20475;-91
2023/01/05 06:53:06;;;;;;;13.00;1.58;;;12.90;99.90;;;;;;5028402;28;20021;-90
2023/01/05 06:55:32;;;;;;;7.10;1.60;;;12.90;99.90;;;;;;4998145;28;20026;-90
2023/01/05 06:57:58;;;;;;;10.68;2.05;;;12.90;99.90;;;;;;5010257;28;20366;-92
2023/01/05 07:00:24;;;;;;;10.00;1.88;;;12.90;99.90;;;;;;4997202;28;20286;-92
2023/01/05 07:02:50;;;;;;;9.00;1.60;;;12.90;99.90;;;;;;5012094;28;20020;-89
2023/01/05 07:05:16;;;;;;;12.10;1.95;;;12.90;99.90;;;;;;4985292;28;20468;-90
2023/01/05 07:07:42;;;;;;;9.97;1.60;;;12.90;99.90;;;;;;4993343;28;20040;-89
2023/01/05 07:10:08;;;;;;;16.13;2.10;;;12.80;99.90;;;;;;4956454;28;20117;-90
2023/01/05 07:12:35;;;;;;;9.98;1.63;;;12.80;99.90;;;;;;5012231;28;20397;-91
2023/01/05 07:15:04;;;;;;;8.80;1.60;;;12.90;99.90;;;;;;5006309;28;20025;-91
2023/01/05 07:17:30;;;;;;;11.48;1.75;;;12.80;99.90;;;;;;4982106;28;20026;-90
2023/01/05 07:19:57;;;;;;;8.27;1.50;;;12.80;99.90;;;;;;4993939;28;20182;-92
2023/01/05 07:22:23;;;;;;;9.20;1.85;;;12.80;99.90;;;;;;4986560;28;20115;-91
2023/01/05 07:24:49;;;;;;;10.27;2.10;;;12.80;99.90;;;;;;4994553;28;20338;-89
2023/01/05 07:27:15;;;;;;;10.03;1.70;;;12.80;99.90;;;;;;4975734;28;20056;-92
2023/01/05 07:29:41;;;;;;;10.68;1.70;;;12.80;99.90;;;;;;4975386;28;20037;-91
2023/01/05 07:32:07;;;;;;;8.20;1.70;;;12.80;99.90;;;;;;4980261;28;20135;-90
2023/01/05 07:34:32;;;;;;;9.82;1.60;;;12.90;99.90;;;;;;4995044;28;20038;-90
2023/01/05 07:36:58;;;;;;;10.10;1.73;;;12.90;99.90;;;;;;4977650;28;20087;-91
2023/01/05 07:39:24;;;;;;;9.67;1.90;;;12.80;99.90;;;;;;4978781;28;20410;-90
2023/01/05 07:41:50;;;;;;;7.85;1.85;;;12.80;99.90;;;;;;4973135;28;20036;-90
2023/01/05 07:44:17;;;;;;;8.23;1.60;;;12.80;99.90;;;;;;4988892;28;20506;-92
2023/01/05 07:46:43;;;;;;;8.88;1.50;;;12.80;99.90;;;;;;4983683;28;20087;-91
2023/01/05 07:49:10;;;;;;;11.27;1.60;;;12.90;99.90;;;;;;4979971;28;20708;-90
2023/01/05 07:51:36;;;;;;;7.50;1.60;;;12.90;99.90;;;;;;4999102;28;20408;-92
2023/01/05 07:54:01;;;;;;;7.23;1.50;;;12.80;99.90;;;;;;4976406;28;20023;-90
2023/01/05 07:56:27;;;;;;;9.57;1.67;;;12.80;99.90;;;;;;4979171;28;20067;-91
2023/01/05 07:58:53;;;;;;;10.80;1.90;;;12.80;99.90;;;;;;4958218;28;20500;-92
2023/01/05 08:01:19;;;;;;;10.18;1.48;;;12.80;99.90;;;;;;4974391;28;20239;-91
2023/01/05 08:03:45;;;;;;;10.45;1.73;;;12.80;99.90;;;;;;4995772;28;20044;-90
2023/01/05 08:06:17;;;;;;;7.57;1.45;;;12.80;99.90;;;;;;4993143;28;20737;-91
2023/01/05 08:08:44;;;;;;;6.67;1.40;;;12.80;99.90;;;;;;4997811;28;20029;-90
2023/01/05 08:11:14;;;;;;;10.68;1.48;;;12.80;99.90;;;;;;5001387;28;20056;-91
2023/01/05 08:13:58;;;;;;;8.15;1.50;;;12.80;99.90;;;;;;4986154;28;20150;-90
2023/01/05 08:16:25;;;;;;;8.38;2.08;;;12.80;99.90;;;;;;4996214;28;20455;-90
2023/01/05 08:18:51;;;;;;;15.07;2.35;;;12.80;99.90;;;;;;5000571;28;20021;-89
2023/01/05 08:21:17;;;;;;;13.50;2.27;;;12.80;99.90;;;;;;5027229;28;20251;-90
2023/01/05 08:23:44;;;;;;;9.75;1.58;;;12.80;99.90;;;;;;5016107;28;20020;-89
2023/01/05 08:26:13;;;;;;;10.75;1.73;;;12.80;99.90;;;;;;5013741;28;20108;-91
2023/01/05 08:28:39;;;;;;;12.77;1.65;;;12.80;99.90;;;;;;4980714;28;20044;-89
2023/01/05 08:31:09;;;;;;;12.50;1.87;;;12.80;99.90;;;;;;5034526;28;20029;-92
2023/01/05 08:33:34;;;;;;;9.50;1.80;;;12.80;99.90;;;;;;4994660;28;20024;-91
2023/01/05 08:36:05;;;;;;;9.82;1.45;;;12.90;99.90;;;;;;5015490;28;20029;-91
2023/01/05 08:38:31;;;;;;;11.10;1.52;;;12.90;99.90;;;;;;5000572;28;20029;-91
2023/01/05 08:41:00;;;;;;;11.33;1.77;;;12.90;99.90;;;;;;5030889;28;20048;-90
2023/01/05 08:43:26;;;;;;;11.23;1.80;;;12.90;99.90;;;;;;5000831;28;20072;-91
2023/01/05 08:45:52;;;;;;;9.57;1.60;;;12.90;99.90;;;;;;4985428;28;20047;-90
2023/01/05 08:48:18;;;;;;;7.60;1.40;;;12.90;99.90;;;;;;5027662;28;20136;-92
2023/01/05 08:50:44;;;;;;;11.20;1.73;;;12.90;99.90;;;;;;5001708;28;20028;-91
2023/01/05 08:53:10;;;;;;;9.23;1.55;;;12.90;99.90;;;;;;5000526;28;20025;-92
2023/01/05 08:55:36;;;;;;;12.07;2.03;;;12.90;99.90;;;;;;5012385;28;20017;-90
2023/01/05 08:58:05;;;;;;;10.60;1.55;;;12.90;99.90;;;;;;4996446;28;20013;-90
2023/01/05 09:00:32;;;;;;;10.02;1.40;;;13.00;99.90;;;;;;4987125;28;20025;-91
2023/01/05 09:02:57;;;;;;;9.15;1.58;;;13.00;99.90;;;;;;5009670;28;20107;-93
2023/01/05 09:05:23;;;;;;;8.27;1.70;;;13.00;99.90;;;;;;5018792;28;20612;-90
2023/01/05 09:07:49;;;;;;;6.78;1.30;;;13.00;99.90;;;;;;5019375;28;20469;-90
2023/01/05 09:10:15;;;;;;;14.05;1.95;;;13.00;99.90;;;;;;5012359;28;20587;-92
2023/01/05 09:12:41;;;;;;;6.37;1.50;;;13.00;99.90;;;;;;5003076;28;20351;-92
2023/01/05 09:15:07;;;;;;;8.68;1.73;;;13.10;99.90;;;;;;4994205;28;20497;-92
2023/01/05 09:17:34;;;;;;;11.30;1.80;;;13.10;99.90;;;;;;5005522;28;20547;-91
2023/01/05 09:20:02;;;;;;;10.10;1.65;;;13.10;99.90;;;;;;5007384;28;20467;-91
2023/01/05 09:22:30;;;;;;;10.82;1.80;;;13.10;99.90;;;;;;5017578;28;20439;-89
2023/01/05 09:24:57;;;;;;;10.55;1.88;;;13.20;99.90;;;;;;5015250;28;20675;-93
2023/01/05 09:27:23;;;;;;;10.68;2.10;;;13.20;99.90;;;;;;5015679;28;20259;-92
2023/01/05 09:29:49;;;;;;;9.73;1.70;;;13.20;99.90;;;;;;4990983;28;20045;-90
2023/01/05 09:32:15;;;;;;;8.85;2.15;;;13.30;99.90;;;;;;5000754;28;20122;-91
2023/01/05 09:34:41;;;;;;;8.40;1.60;;;13.30;99.90;;;;;;5012691;28;20306;-91
2023/01/05 09:37:08;;;;;;;9.10;1.95;;;13.30;99.90;;;;;;5031877;28;20111;-92
2023/01/05 09:39:34;;;;;;;7.97;1.37;;;13.30;99.90;;;;;;5002127;28;20040;-93
2023/01/05 09:42:04;;;;;;;10.02;1.83;;;13.30;99.90;;;;;;5016391;28;20076;-91
2023/01/05 09:44:35;;;;;;;8.23;2.10;;;13.20;99.90;;;;;;5013127;28;20021;-91
2023/01/05 09:47:29;;;;;;;9.73;1.98;;;13.30;99.90;;;;;;4995164;28;20485;-90
2023/01/05 09:49:57;;;;;;;8.43;1.40;;;13.30;99.90;;;;;;5013115;28;20078;-90
2023/01/05 09:52:23;;;;;;;8.85;1.35;;;13.30;99.90;;;;;;4997665;28;20233;-91
2023/01/05 09:54:49;;;;;;;7.93;1.42;;;13.30;99.90;;;;;;5003600;28;20053;-92
2023/01/05 09:57:18;;;;;;;8.38;1.65;;;13.30;99.90;;;;;;4997378;28;20104;-92
2023/01/05 09:59:48;;;;;;;7.53;1.43;;;13.30;99.90;;;;;;5015660;28;20127;-92
2023/01/05 10:02:28;;;;;;;9.15;1.90;;;13.30;99.90;;;;;;4993545;28;20640;-92
2023/01/05 10:04:54;;;;;;;8.48;1.20;;;13.30;99.90;;;;;;5023345;28;20049;-90
2023/01/05 10:07:48;;;;;;;8.40;1.52;;;13.30;99.90;;;;;;4980161;28;20793;-89
2023/01/05 10:10:37;;;;;;;10.07;1.58;;;13.30;99.90;;;;;;4993803;28;20482;-91
2023/01/05 10:13:06;;;;;;;11.37;2.20;;;13.30;99.90;;;;;;4963152;28;20025;-91
2023/01/05 10:15:40;;;;;;;5.55;1.13;;;13.30;99.90;;;;;;4981685;28;20045;-92
2023/01/05 10:18:16;;;;;;;11.07;1.55;;;13.30;99.90;;;;;;4972203;28;20049;-92
2023/01/05 10:21:03;;;;;;;13.93;2.45;;;13.30;99.90;;;;;;5001878;28;20036;-90
2023/01/05 10:23:41;;;;;;;8.30;1.50;;;13.30;99.90;;;;;;4995550;28;20102;-91
2023/01/05 10:26:23;;;;;;;8.90;1.57;;;13.30;99.90;;;;;;4994752;28;20132;-91
2023/01/05 10:29:08;;;;;;;9.18;1.33;;;13.30;99.90;;;;;;4982865;28;20071;-90
2023/01/05 10:31:55;;;;;;;7.18;1.50;;;13.40;99.90;;;;;;4975965;28;20262;-91
2023/01/05 10:34:30;;;;;;;9.15;1.70;;;13.40;99.90;;;;;;4996193;28;20127;-92
2023/01/05 10:37:01;;;;;;;11.90;1.70;;;13.50;99.90;;;;;;4989322;28;20014;-90
2023/01/05 10:39:33;;;;;;;9.00;1.53;;;13.50;99.90;;;;;;4993659;28;20079;-92
2023/01/05 10:42:08;;;;;;;7.57;1.30;;;13.50;99.90;;;;;;4987875;28;20037;-92
2023/01/05 10:44:46;;;;;;;10.70;1.75;;;13.60;99.90;;;;;;4974188;28;20053;-91
2023/01/05 10:47:12;;;;;;;8.68;1.67;;;13.70;99.90;;;;;;4957248;28;20042;-91
2023/01/05 10:49:41;;;;;;;7.95;1.90;;;13.70;99.90;;;;;;4982682;28;20104;-92
2023/01/05 10:52:16;;;;;;;8.43;1.63;;;13.70;99.90;;;;;;4973442;28;20334;-91
2023/01/05 10:54:56;;;;;;;10.80;1.45;;;13.70;99.90;;;;;;4986610;28;20108;-92
2023/01/05 10:57:27;;;;;;;9.25;1.67;;;13.70;99.90;;;;;;4993065;28;20041;-91
2023/01/05 11:00:18;;;;;;;8.95;1.75;;;13.80;99.90;;;;;;5010815;28;20079;-90
2023/01/05 11:03:01;;;;;;;10.15;1.70;;;13.80;99.90;;;;;;4963254;28;20029;-92
2023/01/05 11:05:47;;;;;;;9.77;1.90;;;13.90;99.90;;;;;;4997374;28;20442;-91
2023/01/05 11:08:17;;;;;;;6.75;1.50;;;14.00;99.90;;;;;;4990629;28;20699;-90
2023/01/05 11:10:55;;;;;;;9.32;1.80;;;14.10;99.90;;;;;;4979065;28;20313;-91
2023/01/05 11:13:45;;;;;;;9.00;1.48;;;14.20;99.90;;;;;;5011157;28;20281;-91
2023/01/05 11:16:14;;;;;;;8.32;1.50;;;14.40;99.90;;;;;;4986561;28;21412;-92
2023/01/05 11:19:01;;;;;;;9.73;1.63;;;14.70;99.90;;;;;;4989060;28;20041;-93
2023/01/05 11:21:42;;;;;;;8.43;1.48;;;15.10;99.90;;;;;;4987401;28;20033;-93
2023/01/05 11:24:23;;;;;;;11.60;2.00;;;15.50;99.90;;;;;;4991678;28;20524;-90
2023/01/05 11:26:54;;;;;;;12.00;2.00;;;15.90;99.90;;;;;;4993425;28;20036;-90
2023/01/05 11:29:20;;;;;;;10.18;2.22;;;16.20;99.90;;;;;;4993411;28;20676;-91
2023/01/05 11:32:02;;;;;;;11.37;2.57;;;16.50;99.90;;;;;;4980977;28;20017;-92
2023/01/05 11:34:45;;;;;;;11.57;2.00;;;16.70;99.90;;;;;;4977622;28;20035;-92
2023/01/05 11:37:11;;;;;;;10.43;1.80;;;16.80;99.90;;;;;;5006525;28;20264;-93
2023/01/05 11:39:41;;;;;;;10.13;1.60;;;16.80;99.90;;;;;;4981956;28;20049;-92
2023/01/05 11:42:19;;;;;;;7.28;1.70;;;16.80;99.90;;;;;;4991347;28;20591;-92
2023/01/05 11:44:51;;;;;;;9.27;1.70;;;16.70;99.90;;;;;;4972074;28;20021;-90
2023/01/05 11:47:34;;;;;;;8.23;1.63;;;16.60;99.90;;;;;;4987571;28;20025;-92
2023/01/05 11:50:14;;;;;;;10.45;1.90;;;16.50;99.90;;;;;;4975870;28;20048;-92
2023/01/05 11:52:40;;;;;;;7.93;1.67;;;16.40;99.90;;;;;;4977794;28;20026;-90
2023/01/05 11:55:39;;;;;;;9.52;1.63;;;16.30;99.90;;;;;;4980785;28;20091;-91
2023/01/05 11:58:13;;;;;;;12.35;1.75;;;16.10;99.90;;;;;;4992216;28;20018;-91
2023/01/05 12:00:57;;;;;;;10.38;1.85;;;16.00;99.90;;;;;;4994282;28;20045;-91
2023/01/05 12:03:44;;;;;;;8.13;2.05;;;15.90;99.90;;;;;;4978732;28;20022;-91
2023/01/05 12:06:35;;;;;;;7.50;1.63;;;15.80;99.90;;;;;;4987056;28;20060;-92
2023/01/05 12:09:30;;;;;;;7.55;1.42;;;15.70;99.90;;;;;;5000116;28;20561;-91
2023/01/05 12:12:04;;;;;;;8.30;1.50;;;15.60;99.90;;;;;;4998550;28;20049;-91
2023/01/05 12:14:48;;;;;;;6.40;1.50;;;15.60;99.90;;;;;;5006287;28;20036;-92
2023/01/05 12:17:23;;;;;;;5.43;1.52;;;15.50;99.90;;;;;;5032643;28;20534;-92
2023/01/05 12:20:27;;;;;;;8.97;2.03;;;15.40;99.90;;;;;;5000884;28;20029;-91
2023/01/05 12:23:20;;;;;;;8.10;1.80;;;15.40;99.90;;;;;;4987923;28;20130;-92
2023/01/05 12:26:15;;;;;;;7.70;1.77;;;15.30;99.90;;;;;;5014534;28;20139;-91
2023/01/05 12:28:47;;;;;;;8.50;1.58;;;15.30;99.90;;;;;;5012129;28;20033;-90
2023/01/05 12:31:40;;;;;;;7.90;1.50;;;15.20;99.90;;;;;;5033154;28;20022;-91
2023/01/05 12:34:40;;;;;;;9.80;2.10;;;15.10;99.90;;;;;;5012923;28;20031;-92
2023/01/05 12:37:43;;;;;;;7.38;1.70;;;15.10;99.90;;;;;;4996048;28;20025;-92
2023/01/05 12:40:19;;;;;;;8.70;1.60;;;15.00;99.90;;;;;;5029348;28;20029;-93
2023/01/05 12:42:57;;;;;;;8.90;1.80;;;15.00;99.90;;;;;;5002980;28;20017;-90
2023/01/05 12:46:01;;;;;;;11.13;1.52;;;15.00;99.90;;;;;;4997434;28;20694;-90
2023/01/05 12:48:44;;;;;;;9.47;1.40;;;14.90;99.90;;;;;;4998206;28;20627;-91
2023/01/05 12:51:31;;;;;;;7.43;1.40;;;14.90;99.90;;;;;;4991114;28;20036;-92
2023/01/05 12:54:00;;;;;;;7.75;1.80;;;14.90;99.90;;;;;;5021500;28;20040;-91
2023/01/05 12:56:30;;;;;;;10.55;1.73;;;14.90;99.90;;;;;;5016207;28;20029;-91
2023/01/05 12:59:17;;;;;;;8.45;1.70;;;14.90;99.90;;;;;;5001101;28;20056;-91
2023/01/05 13:02:01;;;;;;;8.23;1.70;;;14.90;99.90;;;;;;4999420;28;20036;-91
2023/01/05 13:04:44;;;;;;;5.78;1.33;;;14.80;99.90;;;;;;5005953;28;20098;-91
2023/01/05 13:07:33;;;;;;;6.32;1.33;;;14.80;99.90;;;;;;5023725;28;20040;-91
2023/01/05 13:10:03;;;;;;;8.35;1.50;;;14.80;99.90;;;;;;5018406;28;20033;-91
2023/01/05 13:12:31;;;;;;;8.30;1.60;;;14.90;99.90;;;;;;4994126;28;20033;-90
2023/01/05 13:15:15;;;;;;;10.70;1.90;;;14.90;99.90;;;;;;5017088;28;20476;-92
2023/01/05 13:17:45;;;;;;;9.68;1.98;;;14.90;99.90;;;;;;5017587;28;23148;-91
2023/01/05 13:20:26;;;;;;;11.68;2.30;;;14.80;99.90;;;;;;5015624;28;20032;-90
2023/01/05 13:22:59;;;;;;;7.22;1.60;;;14.80;99.90;;;;;;4978855;28;20068;-91
2023/01/05 13:25:31;;;;;;;8.68;1.58;;;14.80;99.90;;;;;;5009602;28;20089;-91
2023/01/05 13:27:57;;;;;;;9.27;1.70;;;14.70;99.90;;;;;;4988493;28;20021;-92
2023/01/05 13:30:25;;;;;;;9.70;1.95;;;14.60;99.90;;;;;;5002726;28;20313;-90
2023/01/05 13:33:13;;;;;;;8.48;1.92;;;14.50;99.90;;;;;;5015547;28;20536;-90